Time;durP1;ratioP1;P1;durP2;ratioP2;P2;SDS_P1;SDS_P2;PMS_P1;PMS_P2;Temp;Humidity;BMP_temperature;BMP_pressure;BME280_temperature;BME280_humidity;BME280_pressure;Samples;Min_cycle;Max_cycle;Signal;HPM_P1;HPM_P2
2022/07/21 00:01:56;;;;;;;7.10;4.28;;;26.90;47.70;25.70;101431.00;;;;5030671;28;20108;-68
2022/07/21 00:04:42;;;;;;;6.00;3.95;;;26.90;47.60;25.70;101433.00;;;;5023481;28;20120;-67
2022/07/21 00:07:28;;;;;;;6.03;4.35;;;26.80;47.50;25.70;101434.00;;;;5024701;28;20041;-68
2022/07/21 00:10:15;;;;;;;4.30;3.60;;;26.90;47.50;25.70;101431.00;;;;5030827;28;20060;-68
2022/07/21 00:13:01;;;;;;;5.00;3.97;;;26.90;47.50;25.70;101427.00;;;;5026505;28;20042;-67
2022/07/21 00:15:47;;;;;;;6.28;3.70;;;26.80;47.40;25.70;101435.00;;;;5023378;28;20042;-68
2022/07/21 00:18:33;;;;;;;4.88;3.72;;;26.90;47.40;25.70;101435.00;;;;5021884;28;20041;-69
2022/07/21 00:21:19;;;;;;;8.30;4.97;;;26.90;47.40;25.70;101433.00;;;;5027274;28;20049;-67
2022/07/21 00:24:05;;;;;;;7.47;4.88;;;26.90;47.70;25.70;101446.00;;;;5021023;28;20112;-68
2022/07/21 00:26:51;;;;;;;5.65;4.43;;;26.90;48.30;25.70;101443.00;;;;5022772;28;20030;-67
2022/07/21 00:29:37;;;;;;;5.80;4.68;;;26.90;48.70;25.70;101419.00;;;;5024980;28;20631;-67
2022/07/21 00:32:24;;;;;;;5.30;4.47;;;26.90;48.90;25.70;101382.00;;;;5021793;28;20041;-68
2022/07/21 00:35:10;;;;;;;7.80;5.07;;;26.90;48.90;25.70;101333.00;;;;5029936;28;20034;-67
2022/07/21 00:37:56;;;;;;;6.88;4.85;;;26.90;49.00;25.70;101304.00;;;;5024557;28;20041;-67
2022/07/21 00:40:42;;;;;;;6.72;4.53;;;26.90;49.30;25.70;101256.00;;;;5020577;28;20060;-67
2022/07/21 00:43:28;;;;;;;6.88;4.78;;;26.80;49.30;25.70;101252.00;;;;5026443;28;20047;-67
2022/07/21 00:46:14;;;;;;;6.25;4.93;;;26.80;49.10;25.70;101264.00;;;;5024291;28;20049;-67
2022/07/21 00:49:00;;;;;;;6.47;4.60;;;26.80;49.00;25.70;101264.00;;;;5024216;28;20460;-68
2022/07/21 00:51:47;;;;;;;8.10;4.78;;;26.80;48.80;25.70;101281.00;;;;5023064;28;20033;-68
2022/07/21 00:54:33;;;;;;;7.60;4.72;;;26.80;49.50;25.70;101294.00;;;;5021746;28;20095;-68
2022/07/21 00:57:19;;;;;;;6.57;5.07;;;26.80;49.70;25.70;101303.00;;;;5025607;28;20048;-67
2022/07/21 01:00:08;;;;;;;6.95;4.80;;;26.80;49.70;25.70;101294.00;;;;5024185;28;20049;-68
2022/07/21 01:02:55;;;;;;;6.10;4.85;;;26.80;49.80;25.70;101300.00;;;;5013721;28;20068;-67
2022/07/21 01:05:41;;;;;;;7.00;5.13;;;26.80;49.90;25.70;101314.00;;;;5025328;28;20042;-67
2022/07/21 01:08:27;;;;;;;6.97;4.57;;;26.80;50.00;25.70;101321.00;;;;5025898;28;20486;-67
2022/07/21 01:11:13;;;;;;;6.88;4.82;;;26.80;50.00;25.70;101325.00;;;;5026613;28;20044;-67
2022/07/21 01:13:59;;;;;;;9.35;5.20;;;26.80;50.40;25.70;101310.00;;;;5021189;28;20076;-67
2022/07/21 01:16:45;;;;;;;5.88;4.65;;;26.80;50.10;25.70;101305.00;;;;5035935;28;20034;-67
2022/07/21 01:19:31;;;;;;;8.35;4.75;;;26.80;50.10;25.70;101315.00;;;;5024771;28;20505;-67
2022/07/21 01:22:17;;;;;;;8.13;5.07;;;26.80;50.10;25.70;101316.00;;;;5021576;28;20495;-67
2022/07/21 01:25:04;;;;;;;5.75;4.57;;;26.80;50.20;25.70;101331.00;;;;5021035;28;20038;-68
2022/07/21 01:27:50;;;;;;;5.30;4.07;;;26.80;50.00;25.60;101322.00;;;;5023604;28;20091;-67
2022/07/21 01:30:36;;;;;;;5.38;4.10;;;26.80;50.10;25.60;101334.00;;;;5015693;28;20038;-67
2022/07/21 01:33:22;;;;;;;6.15;4.28;;;26.80;50.00;25.60;101345.00;;;;5027027;28;20501;-67
2022/07/21 01:36:08;;;;;;;6.78;4.70;;;26.80;50.20;25.60;101345.00;;;;5018534;28;20143;-67
2022/07/21 01:41:59;;;;;;;5.25;4.43;;;26.80;50.30;25.60;101352.00;;;;5023069;28;20558;-67
2022/07/21 01:44:45;;;;;;;5.32;4.53;;;26.70;50.20;25.60;101345.00;;;;5012333;28;20029;-67
2022/07/21 01:47:31;;;;;;;6.53;4.50;;;26.80;50.20;25.60;101357.00;;;;5021289;28;20393;-67
2022/07/21 01:50:20;;;;;;;8.82;4.50;;;26.70;50.20;25.60;101364.00;;;;5021655;28;20060;-67
2022/07/21 01:53:07;;;;;;;4.82;4.00;;;26.70;50.30;25.60;101357.00;;;;5029343;28;20045;-67
2022/07/21 01:55:53;;;;;;;6.03;4.50;;;26.70;50.40;25.60;101363.00;;;;5023877;28;20038;-67
2022/07/21 01:58:39;;;;;;;5.00;3.75;;;26.80;50.40;25.60;101356.00;;;;5021923;28;20033;-67
2022/07/21 02:01:28;;;;;;;7.80;4.70;;;26.70;50.30;25.60;101352.00;;;;5032797;28;20044;-67
2022/07/21 02:04:14;;;;;;;5.95;4.28;;;26.70;50.40;25.60;101349.00;;;;5012475;28;20041;-67
2022/07/21 02:07:01;;;;;;;7.05;4.40;;;26.80;50.60;25.60;101343.00;;;;5026611;28;20073;-67
2022/07/21 02:09:47;;;;;;;6.60;4.63;;;26.70;50.50;25.60;101344.00;;;;5006525;28;20134;-67
2022/07/21 02:12:33;;;;;;;7.07;4.80;;;26.70;50.50;25.60;101336.00;;;;5023607;28;20399;-67
2022/07/21 02:15:19;;;;;;;10.90;5.00;;;26.70;50.50;25.60;101329.00;;;;5026750;28;20057;-67
2022/07/21 02:18:05;;;;;;;6.82;4.20;;;26.70;50.50;25.60;101328.00;;;;5020526;28;20060;-67
2022/07/21 02:20:51;;;;;;;5.72;4.03;;;26.70;50.50;25.60;101313.00;;;;5023294;28;20045;-67
2022/07/21 02:23:37;;;;;;;6.10;4.13;;;26.70;50.60;25.60;101318.00;;;;5024095;28;20037;-67
2022/07/21 02:26:23;;;;;;;6.63;4.30;;;26.70;50.70;25.60;101307.00;;;;5023324;28;20430;-67
2022/07/21 02:29:09;;;;;;;4.93;4.07;;;26.70;50.70;25.60;101316.00;;;;5022832;28;20041;-67
2022/07/21 02:31:56;;;;;;;4.30;3.60;;;26.70;50.80;25.60;101324.00;;;;5022862;28;20041;-67
2022/07/21 02:34:42;;;;;;;6.70;4.20;;;26.70;50.90;25.60;101327.00;;;;5023139;28;20506;-67
2022/07/21 02:37:28;;;;;;;9.07;4.05;;;26.70;50.80;25.60;101320.00;;;;5024559;28;20110;-67
2022/07/21 02:40:14;;;;;;;6.20;4.25;;;26.70;50.80;25.60;101318.00;;;;5022937;28;20052;-67
2022/07/21 02:43:00;;;;;;;6.25;4.10;;;26.70;51.00;25.60;101309.00;;;;5030639;28;20034;-67
2022/07/21 02:45:46;;;;;;;5.93;4.22;;;26.70;50.90;25.60;101310.00;;;;5029737;28;20046;-67
2022/07/21 02:48:32;;;;;;;8.57;4.13;;;26.70;51.00;25.60;101313.00;;;;5021633;28;20041;-67
2022/07/21 02:51:18;;;;;;;6.70;4.57;;;26.70;51.10;25.60;101316.00;;;;5022828;28;20053;-67
2022/07/21 02:54:04;;;;;;;5.65;4.32;;;26.70;51.10;25.60;101318.00;;;;5019227;28;20030;-67
2022/07/21 02:56:50;;;;;;;12.25;4.40;;;26.70;51.10;25.60;101317.00;;;;5022214;28;20045;-67
2022/07/21 02:59:36;;;;;;;4.75;3.88;;;26.70;51.10;25.60;101316.00;;;;5018752;28;20103;-67
2022/07/21 03:02:22;;;;;;;5.90;4.07;;;26.70;51.20;25.60;101312.00;;;;5024255;28;20033;-67
2022/07/21 03:05:08;;;;;;;4.22;3.70;;;26.60;51.10;25.60;101312.00;;;;5020390;28;20657;-67
2022/07/21 03:07:54;;;;;;;5.90;3.95;;;26.70;51.10;25.60;101314.00;;;;5024230;28;20072;-67
2022/07/21 03:10:41;;;;;;;6.22;4.03;;;26.60;51.20;25.60;101314.00;;;;5020922;28;20042;-67
2022/07/21 03:13:27;;;;;;;5.60;4.47;;;26.60;51.10;25.60;101317.00;;;;5026765;28;20314;-67
2022/07/21 03:16:13;;;;;;;7.90;4.45;;;26.60;51.30;25.60;101328.00;;;;5026793;28;20052;-67
2022/07/21 03:18:59;;;;;;;5.45;3.97;;;26.70;51.40;25.60;101320.00;;;;5023875;28;20037;-67
2022/07/21 03:21:45;;;;;;;6.57;4.30;;;26.60;51.50;25.60;101324.00;;;;5024901;28;20037;-67
2022/07/21 03:24:31;;;;;;;6.78;4.53;;;26.60;51.40;25.60;101325.00;;;;5023064;28;20065;-66
2022/07/21 03:27:18;;;;;;;6.10;4.53;;;26.60;51.50;25.60;101322.00;;;;5025264;28;20042;-66
2022/07/21 03:30:08;;;;;;;7.97;4.93;;;26.60;51.60;25.60;101316.00;;;;5027547;28;20048;-67
2022/07/21 03:32:54;;;;;;;7.07;4.40;;;26.60;51.80;25.50;101313.00;;;;5005819;28;20363;-67
2022/07/21 03:35:41;;;;;;;5.35;4.85;;;26.60;51.80;25.60;101316.00;;;;5024939;28;20453;-67
2022/07/21 03:38:27;;;;;;;;;;;26.60;51.60;25.50;101320.00;;;;5022499;28;20263;-67
2022/07/21 03:41:13;;;;;;;6.30;4.70;;;26.60;51.10;25.50;101318.00;;;;5022594;28;19928;-66
2022/07/21 03:43:59;;;;;;;9.68;5.18;;;26.60;51.50;25.50;101320.00;;;;5025775;28;20147;-66
2022/07/21 03:46:46;;;;;;;7.53;4.72;;;26.70;51.80;25.50;101322.00;;;;5016834;28;20049;-67
2022/07/21 03:49:32;;;;;;;6.15;4.82;;;26.60;51.90;25.50;101324.00;;;;5025606;28;20050;-67
2022/07/21 03:52:18;;;;;;;7.50;4.63;;;26.60;52.00;25.50;101325.00;;;;5025193;28;20048;-67
2022/07/21 03:55:14;;;;;;;7.85;4.75;;;26.60;52.30;25.50;101328.00;;;;5021378;28;20495;-67
2022/07/21 03:58:04;;;;;;;6.35;4.60;;;26.60;52.40;25.50;101326.00;;;;5025798;28;20065;-67
2022/07/21 04:00:50;;;;;;;8.13;4.80;;;26.60;52.60;25.50;101337.00;;;;5019429;28;20038;-67
2022/07/21 04:03:36;;;;;;;6.00;4.57;;;26.60;52.40;25.50;101330.00;;;;5021995;28;20108;-67
2022/07/21 04:06:22;;;;;;;5.68;4.15;;;26.60;52.60;25.50;101337.00;;;;5023856;28;20467;-67
2022/07/21 04:09:08;;;;;;;7.00;4.30;;;26.60;52.50;25.50;101327.00;;;;5024057;28;20045;-67
2022/07/21 04:11:54;;;;;;;6.05;4.38;;;26.50;52.40;25.50;101313.00;;;;5024711;28;20042;-67
2022/07/21 04:14:40;;;;;;;5.28;4.15;;;26.50;52.50;25.50;101306.00;;;;5023642;28;20061;-67
2022/07/21 04:17:26;;;;;;;6.20;4.18;;;26.60;52.60;25.50;101300.00;;;;5022065;28;20037;-67
2022/07/21 04:20:13;;;;;;;4.13;3.30;;;26.50;52.50;25.50;101293.00;;;;5025364;28;20044;-67
2022/07/21 04:22:59;;;;;;;6.18;4.07;;;26.50;52.60;25.50;101297.00;;;;5027732;28;20645;-67
2022/07/21 04:25:45;;;;;;;5.35;3.75;;;26.60;52.40;25.50;101293.00;;;;5023737;28;20038;-67
2022/07/21 04:28:32;;;;;;;7.30;3.40;;;26.60;52.30;25.50;101288.00;;;;5021618;28;20103;-67
2022/07/21 04:31:18;;;;;;;12.65;4.20;;;26.60;52.30;25.50;101290.00;;;;5027255;28;20063;-67
2022/07/21 04:34:04;;;;;;;7.90;3.50;;;26.60;52.30;25.50;101290.00;;;;5024957;28;20046;-67
2022/07/21 04:36:50;;;;;;;5.03;2.97;;;26.60;52.40;25.50;101293.00;;;;5025174;28;20042;-67
2022/07/21 04:39:36;;;;;;;9.20;3.55;;;26.60;52.60;25.50;101298.00;;;;5019340;28;20412;-68
2022/07/21 04:42:22;;;;;;;4.65;3.55;;;26.50;52.10;25.50;101297.00;;;;5021685;28;20041;-67
2022/07/21 04:45:09;;;;;;;5.05;3.47;;;26.50;52.10;25.50;101301.00;;;;5023310;28;20149;-67
2022/07/21 04:47:55;;;;;;;7.78;3.08;;;26.60;52.10;25.50;101299.00;;;;5009865;28;20033;-67
2022/07/21 04:50:41;;;;;;;4.53;3.63;;;26.60;52.10;25.50;101305.00;;;;5024107;28;20038;-67
2022/07/21 04:53:27;;;;;;;6.00;3.78;;;26.60;52.20;25.50;101308.00;;;;5022832;28;20041;-67
2022/07/21 04:56:14;;;;;;;3.70;3.13;;;26.60;52.00;25.50;101295.00;;;;5025773;28;20208;-66
2022/07/21 04:59:01;;;;;;;4.82;3.25;;;26.60;51.80;25.50;101291.00;;;;5025503;28;20068;-67
2022/07/21 05:01:47;;;;;;;4.38;3.30;;;26.60;52.00;25.50;101295.00;;;;5020865;28;20091;-67
2022/07/21 05:04:33;;;;;;;4.38;3.40;;;26.60;52.00;25.50;101292.00;;;;5021970;28;20035;-67
2022/07/21 05:07:19;;;;;;;3.90;3.50;;;26.50;52.10;25.50;101299.00;;;;5022829;28;20467;-66
2022/07/21 05:10:11;;;;;;;4.72;3.65;;;26.60;51.90;25.40;101300.00;;;;5026008;28;20033;-66
2022/07/21 05:12:57;;;;;;;4.70;3.40;;;26.60;51.90;25.50;101310.00;;;;5021566;28;20033;-67
2022/07/21 05:15:43;;;;;;;4.90;3.50;;;26.50;51.80;25.40;101313.00;;;;5020276;28;20471;-66
2022/07/21 05:18:29;;;;;;;4.65;3.50;;;26.60;51.80;25.50;101311.00;;;;5019267;28;20458;-67
2022/07/21 05:21:15;;;;;;;4.15;3.70;;;26.60;51.80;25.40;101310.00;;;;5009985;28;20049;-66
2022/07/21 05:24:02;;;;;;;3.70;3.30;;;26.60;51.80;25.40;101312.00;;;;5025595;28;20548;-67
2022/07/21 05:26:48;;;;;;;5.55;4.05;;;26.60;51.90;25.40;101305.00;;;;5021784;28;20041;-67
2022/07/21 05:29:34;;;;;;;5.72;4.75;;;26.60;51.90;25.40;101304.00;;;;5025751;28;20095;-66
2022/07/21 05:32:20;;;;;;;7.47;4.68;;;26.60;52.10;25.40;101304.00;;;;5044621;28;20054;-67
2022/07/21 05:35:10;;;;;;;6.40;4.38;;;26.60;52.00;25.40;101300.00;;;;5024791;28;20443;-67
2022/07/21 05:37:57;;;;;;;8.10;5.78;;;26.60;51.90;25.40;101292.00;;;;5032198;28;20037;-67
2022/07/21 05:40:43;;;;;;;6.97;5.10;;;26.50;51.80;25.40;101301.00;;;;5039403;28;20093;-67
2022/07/21 05:43:30;;;;;;;8.00;5.32;;;26.60;52.00;25.40;101302.00;;;;5028858;28;20041;-67
2022/07/21 05:46:16;;;;;;;6.32;4.70;;;26.50;52.00;25.40;101305.00;;;;5029477;28;20044;-67
2022/07/21 05:49:02;;;;;;;5.03;4.10;;;26.50;52.00;25.40;101313.00;;;;5024418;28;20038;-66
2022/07/21 05:51:48;;;;;;;4.40;4.00;;;26.50;52.20;25.40;101315.00;;;;5027541;28;20037;-66
2022/07/21 05:54:34;;;;;;;6.43;4.35;;;26.50;52.10;25.40;101320.00;;;;5022917;28;20139;-66
2022/07/21 05:57:20;;;;;;;8.57;5.07;;;26.50;52.20;25.40;101323.00;;;;5031100;28;20041;-66
2022/07/21 06:00:07;;;;;;;6.55;4.55;;;26.50;52.10;25.40;101332.00;;;;5025700;28;20726;-66
2022/07/21 06:02:53;;;;;;;6.53;4.27;;;26.50;52.30;25.40;101338.00;;;;5022826;28;20038;-66
2022/07/21 06:05:39;;;;;;;7.10;4.38;;;26.60;52.40;25.40;101337.00;;;;5019859;28;20567;-66
2022/07/21 06:08:25;;;;;;;6.18;4.20;;;26.50;52.20;25.40;101333.00;;;;5027427;28;20037;-67
2022/07/21 06:11:12;;;;;;;8.15;4.78;;;26.50;52.20;25.40;101332.00;;;;5033475;28;20388;-67
2022/07/21 06:13:58;;;;;;;;;;;26.50;52.20;25.40;101347.00;;;;5024215;28;20037;-67
2022/07/21 06:16:44;;;;;;;4.93;4.05;;;26.50;51.90;25.40;101344.00;;;;5028355;28;19924;-67
2022/07/21 06:19:31;;;;;;;5.88;4.00;;;26.60;52.20;25.40;101338.00;;;;5033120;28;20040;-67
2022/07/21 06:22:17;;;;;;;5.97;4.30;;;26.50;52.00;25.40;101349.00;;;;5027956;28;20408;-67
2022/07/21 06:25:04;;;;;;;5.35;4.20;;;26.60;52.30;25.40;101345.00;;;;5031378;28;20041;-66
2022/07/21 06:27:50;;;;;;;5.95;4.93;;;26.50;52.40;25.40;101350.00;;;;4995954;28;20392;-67
2022/07/21 06:30:36;;;;;;;6.60;4.20;;;26.50;52.30;25.40;101349.00;;;;5023513;28;20399;-67
2022/07/21 06:33:22;;;;;;;5.32;4.57;;;26.50;52.30;25.40;101350.00;;;;5030952;28;20047;-67
2022/07/21 06:36:08;;;;;;;5.65;4.75;;;26.50;52.20;25.40;101350.00;;;;5027551;28;20088;-67
2022/07/21 06:38:54;;;;;;;5.72;4.80;;;26.50;52.40;25.40;101364.00;;;;5027613;28;20041;-67
2022/07/21 06:41:40;;;;;;;6.97;4.60;;;26.50;52.30;25.40;101358.00;;;;5031232;28;20390;-67
2022/07/21 06:44:26;;;;;;;12.05;5.05;;;26.50;52.20;25.40;101358.00;;;;5025607;28;20053;-67
2022/07/21 06:47:12;;;;;;;10.68;5.13;;;26.50;52.20;25.40;101356.00;;;;5028331;28;20040;-67
2022/07/21 06:50:02;;;;;;;7.75;5.03;;;26.50;52.20;25.40;101357.00;;;;5023257;28;20415;-67
2022/07/21 06:52:48;;;;;;;5.32;4.68;;;26.50;52.20;25.40;101364.00;;;;5031794;28;20041;-67
2022/07/21 06:55:35;;;;;;;7.35;4.85;;;26.50;52.10;25.40;101362.00;;;;5027324;28;20120;-67
2022/07/21 06:58:24;;;;;;;6.70;5.03;;;26.50;52.10;25.40;101355.00;;;;5024080;28;20573;-67
2022/07/21 07:01:10;;;;;;;6.68;4.72;;;26.50;52.00;25.40;101357.00;;;;5027002;28;20080;-67
2022/07/21 07:03:56;;;;;;;8.73;4.53;;;26.50;52.00;25.40;101363.00;;;;5026227;28;20084;-66
2022/07/21 07:06:42;;;;;;;6.40;5.10;;;26.50;52.00;25.40;101360.00;;;;5022782;28;20065;-66
2022/07/21 07:09:28;;;;;;;6.35;4.68;;;26.50;52.20;25.40;101363.00;;;;5027944;28;20029;-66
2022/07/21 07:12:14;;;;;;;8.20;5.60;;;26.50;52.20;25.40;101360.00;;;;5026558;28;20041;-66
2022/07/21 07:15:00;;;;;;;7.30;5.07;;;26.50;52.20;25.40;101363.00;;;;5028213;28;20073;-65
2022/07/21 07:17:46;;;;;;;7.47;5.68;;;26.50;52.10;25.40;101358.00;;;;5026081;28;20048;-66
2022/07/21 07:20:33;;;;;;;8.70;6.53;;;26.50;52.50;25.40;101356.00;;;;5017559;28;20045;-66
2022/07/21 07:23:19;;;;;;;10.70;6.03;;;26.50;52.30;25.40;101358.00;;;;5023339;28;20452;-66
2022/07/21 07:26:05;;;;;;;7.97;6.60;;;26.50;52.10;25.40;101358.00;;;;5023913;28;20038;-66
2022/07/21 07:28:51;;;;;;;9.43;6.47;;;26.50;52.40;25.40;101360.00;;;;5019832;28;20038;-66
2022/07/21 07:31:37;;;;;;;6.97;6.10;;;26.50;52.60;25.40;101348.00;;;;5023335;28;20038;-66
2022/07/21 07:34:23;;;;;;;7.35;6.00;;;26.50;52.40;25.40;101350.00;;;;5025055;28;20045;-75
2022/07/21 07:37:09;;;;;;;8.35;7.43;;;26.50;52.20;25.40;101352.00;;;;5037452;28;20108;-66
2022/07/21 07:39:55;;;;;;;9.80;7.65;;;26.50;52.40;25.40;101365.00;;;;5023487;28;20108;-66
2022/07/21 07:42:41;;;;;;;8.98;7.30;;;26.50;52.50;25.40;101351.00;;;;5023296;28;20108;-66
2022/07/21 07:45:27;;;;;;;10.27;7.65;;;26.40;52.40;25.40;101361.00;;;;5033252;28;20127;-66
2022/07/21 07:48:14;;;;;;;9.63;8.27;;;26.50;52.50;25.40;101355.00;;;;5025051;28;20048;-67
2022/07/21 07:51:00;;;;;;;9.88;7.60;;;26.50;52.90;25.40;101356.00;;;;5023304;28;20037;-66
2022/07/21 07:53:46;;;;;;;10.98;8.27;;;26.50;52.90;25.40;101356.00;;;;5020056;28;20049;-66
2022/07/21 07:56:32;;;;;;;11.05;7.50;;;26.50;53.10;25.40;101361.00;;;;5019734;28;20056;-66
2022/07/21 07:59:18;;;;;;;9.48;7.93;;;26.50;52.90;25.40;101361.00;;;;5025735;28;20406;-66
2022/07/21 08:02:04;;;;;;;8.38;7.53;;;26.50;53.10;25.40;101357.00;;;;5017803;28;20124;-66
2022/07/21 08:04:50;;;;;;;10.15;8.25;;;26.40;52.90;25.40;101352.00;;;;5022598;28;20087;-66
2022/07/21 08:07:37;;;;;;;9.32;7.75;;;26.50;52.80;25.40;101356.00;;;;5023104;28;20116;-66
2022/07/21 08:10:24;;;;;;;10.02;7.93;;;26.50;52.70;25.40;101345.00;;;;5022462;28;20041;-66
2022/07/21 08:13:14;;;;;;;11.60;8.32;;;26.50;52.80;25.40;101355.00;;;;5021536;28;20048;-66
2022/07/21 08:16:00;;;;;;;10.93;8.25;;;26.50;52.90;25.40;101350.00;;;;5021164;28;20037;-66
2022/07/21 08:18:46;;;;;;;13.15;8.80;;;26.40;53.00;25.40;101356.00;;;;5028045;28;20123;-66
2022/07/21 08:21:33;;;;;;;13.13;8.27;;;26.50;53.10;25.40;101348.00;;;;5018730;28;20376;-66
2022/07/21 08:24:19;;;;;;;9.32;8.13;;;26.40;52.90;25.30;101348.00;;;;5048885;28;20069;-67
2022/07/21 08:27:05;;;;;;;9.32;8.38;;;26.50;53.20;25.40;101352.00;;;;5022597;28;20061;-67
2022/07/21 08:29:52;;;;;;;13.30;9.88;;;26.50;53.00;25.30;101349.00;;;;5018698;28;20555;-66
2022/07/21 08:32:40;;;;;;;17.02;11.23;;;26.50;54.00;25.30;101350.00;;;;5022569;28;20045;-66
2022/07/21 08:35:26;;;;;;;14.80;10.77;;;26.50;54.50;25.20;101361.00;;;;5017558;28;20145;-66
2022/07/21 08:38:12;;;;;;;12.18;10.43;;;26.40;54.70;25.10;101357.00;;;;5018962;28;20037;-66
2022/07/21 08:40:58;;;;;;;12.00;10.38;;;26.20;55.20;25.00;101360.00;;;;5028956;28;20046;-66
2022/07/21 08:43:45;;;;;;;13.57;10.93;;;26.10;55.40;25.00;101362.00;;;;5020078;28;20041;-66
2022/07/21 08:46:32;;;;;;;13.98;10.27;;;26.10;55.10;25.00;101364.00;;;;5019371;28;20368;-66
2022/07/21 08:49:24;;;;;;;15.07;10.05;;;26.00;55.00;25.00;101352.00;;;;5024371;28;20064;-66
2022/07/21 08:52:10;;;;;;;17.80;10.65;;;25.90;55.20;25.00;101359.00;;;;5026297;28;20483;-66
2022/07/21 08:54:56;;;;;;;10.90;9.50;;;25.90;56.10;25.00;101346.00;;;;5022759;28;20045;-66
2022/07/21 08:57:42;;;;;;;11.77;10.07;;;25.90;55.30;25.00;101351.00;;;;5037635;28;20041;-66
2022/07/21 09:00:28;;;;;;;12.65;10.00;;;26.00;55.40;25.00;101348.00;;;;5020036;28;20045;-66
2022/07/21 09:03:16;;;;;;;15.00;10.52;;;25.90;55.40;25.00;101351.00;;;;5016658;28;20046;-66
2022/07/21 09:06:15;;;;;;;13.68;10.50;;;26.00;55.50;25.00;101359.00;;;;5015396;28;20033;-68
2022/07/21 09:09:01;;;;;;;;;;;26.00;55.50;25.00;101349.00;;;;5019484;28;20640;-66
2022/07/21 09:11:47;;;;;;;13.82;10.35;;;26.00;54.70;25.00;101342.00;;;;5025149;28;19987;-66
2022/07/21 09:14:33;;;;;;;12.75;10.70;;;26.00;55.10;25.00;101352.00;;;;5023654;28;20033;-67
2022/07/21 09:17:19;;;;;;;14.73;11.20;;;26.00;55.20;25.00;101349.00;;;;5021416;28;20069;-66
2022/07/21 09:20:24;;;;;;;16.35;11.13;;;26.00;55.20;25.00;101352.00;;;;5028447;28;20080;-66
2022/07/21 09:23:13;;;;;;;14.15;11.15;;;26.10;55.50;25.00;101340.00;;;;5033131;28;20034;-66
2022/07/21 09:25:59;;;;;;;16.45;12.02;;;26.00;55.20;25.00;101338.00;;;;5017717;28;20491;-66
2022/07/21 09:28:45;;;;;;;13.52;11.00;;;26.00;55.40;25.00;101350.00;;;;5022317;28;20095;-66
2022/07/21 09:31:31;;;;;;;16.17;11.43;;;26.00;55.40;25.00;101345.00;;;;5016598;28;20395;-66
2022/07/21 09:34:19;;;;;;;15.75;11.98;;;26.00;55.90;24.90;101342.00;;;;5025386;28;20052;-66
2022/07/21 09:37:06;;;;;;;16.05;11.57;;;25.90;55.70;24.90;101358.00;;;;5024729;28;20468;-66
2022/07/21 09:39:58;;;;;;;16.58;13.05;;;25.90;56.00;24.90;101348.00;;;;5021944;28;20045;-66
2022/07/21 09:42:51;;;;;;;19.05;12.70;;;25.80;56.00;24.90;101349.00;;;;5025548;28;20054;-67
2022/07/21 09:45:37;;;;;;;15.45;11.95;;;25.80;56.40;24.90;101349.00;;;;5031394;28;20132;-66
2022/07/21 09:48:51;;;;;;;16.10;11.88;;;25.80;56.40;24.90;101348.00;;;;5022312;28;20042;-66
2022/07/21 09:51:40;;;;;;;18.25;12.07;;;25.80;56.30;25.00;101346.00;;;;5027320;28;20048;-66
2022/07/21 09:54:44;;;;;;;16.33;11.65;;;25.80;56.20;25.00;101346.00;;;;5021167;28;20049;-66
2022/07/21 09:57:30;;;;;;;14.48;11.20;;;25.90;56.10;25.00;101352.00;;;;5025039;28;20407;-66
2022/07/21 10:00:19;;;;;;;17.20;12.38;;;25.90;56.00;25.00;101362.00;;;;5021596;28;20051;-66
2022/07/21 10:03:05;;;;;;;16.13;12.38;;;26.00;56.00;25.00;101363.00;;;;5024542;28;20534;-66
2022/07/21 10:05:53;;;;;;;19.50;12.70;;;26.00;55.80;25.10;101367.00;;;;5009920;28;20103;-66
2022/07/21 10:08:39;;;;;;;16.50;11.98;;;26.00;55.70;25.10;101359.00;;;;5023205;28;20041;-66
2022/07/21 10:11:26;;;;;;;15.32;11.18;;;26.00;55.80;25.10;101367.00;;;;5018349;28;20052;-66
2022/07/21 10:14:12;;;;;;;15.35;11.48;;;26.10;55.80;25.10;101369.00;;;;5024387;28;20033;-66
2022/07/21 10:16:58;;;;;;;14.68;11.68;;;26.00;55.60;25.10;101367.00;;;;5020774;28;20064;-66
2022/07/21 10:20:21;;;;;;;16.95;11.25;;;26.00;55.60;25.10;101368.00;;;;5012642;28;20479;-66
2022/07/21 10:23:18;;;;;;;15.57;11.88;;;26.10;55.80;25.10;101373.00;;;;5024265;28;20042;-66
2022/07/21 10:26:05;;;;;;;14.63;11.35;;;26.10;55.90;25.10;101364.00;;;;5029482;28;20052;-66
2022/07/21 10:28:51;;;;;;;12.57;10.32;;;26.10;55.70;25.10;101370.00;;;;5000489;28;20041;-66
2022/07/21 10:31:42;;;;;;;14.57;10.70;;;26.10;55.60;25.10;101366.00;;;;5020332;28;20049;-66
2022/07/21 10:34:35;;;;;;;16.00;11.18;;;26.10;55.80;25.10;101361.00;;;;5027213;28;20041;-67
2022/07/21 10:37:39;;;;;;;15.27;10.85;;;26.10;55.60;25.10;101357.00;;;;5029346;28;20040;-66
2022/07/21 10:40:25;;;;;;;11.60;10.00;;;26.10;55.50;25.10;101349.00;;;;5023646;28;20046;-66
2022/07/21 10:43:31;;;;;;;13.13;10.10;;;26.10;55.30;25.10;101351.00;;;;5025082;28;20462;-67
2022/07/21 10:46:33;;;;;;;12.98;10.30;;;26.20;55.40;25.10;101350.00;;;;5025573;28;20493;-67
2022/07/21 10:49:56;;;;;;;14.65;10.13;;;26.20;55.60;25.10;101346.00;;;;5003886;28;20038;-66
2022/07/21 10:52:42;;;;;;;12.23;9.85;;;26.20;55.40;25.20;101355.00;;;;5048539;28;20088;-66
2022/07/21 10:55:36;;;;;;;12.02;9.55;;;26.20;55.40;25.20;101351.00;;;;5024958;28;20052;-66
2022/07/21 10:58:38;;;;;;;12.70;9.50;;;26.20;55.50;25.20;101347.00;;;;5020070;28;20067;-67
2022/07/21 11:01:25;;;;;;;14.30;8.80;;;26.20;55.60;25.20;101352.00;;;;5025188;28;20738;-67
2022/07/21 11:04:20;;;;;;;12.15;8.75;;;26.20;55.20;25.20;101337.00;;;;5027318;28;20037;-67
2022/07/21 11:07:06;;;;;;;9.32;8.32;;;26.20;55.50;25.20;101345.00;;;;5022758;28;20045;-66
2022/07/21 11:10:17;;;;;;;11.02;8.60;;;26.20;55.40;25.20;101343.00;;;;5041918;28;20383;-66
2022/07/21 11:13:03;;;;;;;10.43;8.13;;;26.20;55.30;25.20;101338.00;;;;5037680;28;20057;-66
2022/07/21 11:16:01;;;;;;;13.65;7.85;;;26.20;55.30;25.20;101332.00;;;;5010380;28;20042;-67
2022/07/21 11:18:47;;;;;;;9.82;7.20;;;26.20;55.90;25.20;101335.00;;;;5021447;28;20092;-66
2022/07/21 11:21:33;;;;;;;8.98;7.00;;;26.30;55.30;25.20;101327.00;;;;5018012;28;20037;-66
2022/07/21 11:24:23;;;;;;;8.30;6.95;;;26.30;55.80;25.20;101328.00;;;;5030901;28;20033;-66
2022/07/21 11:27:15;;;;;;;7.15;6.03;;;26.20;55.00;25.20;101345.00;;;;5025586;28;20042;-66
2022/07/21 11:30:05;;;;;;;9.32;6.32;;;26.30;55.00;25.20;101337.00;;;;5018405;28;20443;-66
2022/07/21 11:32:51;;;;;;;6.30;5.70;;;26.20;54.90;25.20;101343.00;;;;5031872;28;20553;-66
2022/07/21 11:35:38;;;;;;;8.00;5.82;;;26.20;54.80;25.20;101344.00;;;;5022724;28;20037;-66
2022/07/21 11:38:24;;;;;;;6.63;5.35;;;26.30;54.80;25.20;101336.00;;;;5027636;28;20052;-66
2022/07/21 11:41:17;;;;;;;6.80;5.47;;;26.30;54.80;25.20;101337.00;;;;5024710;28;20444;-66
2022/07/21 11:44:04;;;;;;;6.50;5.07;;;26.20;54.60;25.20;101331.00;;;;5023506;28;20037;-67
2022/07/21 11:46:56;;;;;;;7.03;5.40;;;26.10;54.40;25.20;101332.00;;;;5020507;28;20116;-66
2022/07/21 11:49:43;;;;;;;5.90;5.13;;;26.20;54.40;25.20;101328.00;;;;5029323;28;20526;-67
2022/07/21 11:52:31;;;;;;;8.95;5.10;;;26.30;54.60;25.20;101333.00;;;;5025487;28;20436;-66
2022/07/21 11:55:17;;;;;;;6.88;5.40;;;26.30;54.60;25.20;101321.00;;;;5019377;28;20099;-66
2022/07/21 11:58:03;;;;;;;5.40;4.85;;;26.30;54.50;25.20;101315.00;;;;5022410;28;20049;-66
2022/07/21 12:01:05;;;;;;;6.28;4.80;;;26.30;54.40;25.20;101311.00;;;;5028440;28;20045;-66
2022/07/21 12:03:51;;;;;;;7.38;4.50;;;26.30;54.30;25.20;101301.00;;;;5012963;28;20048;-68
2022/07/21 12:06:37;;;;;;;6.38;4.70;;;26.30;54.30;25.20;101305.00;;;;5035491;28;20618;-66
2022/07/21 12:09:23;;;;;;;6.68;4.65;;;26.30;54.20;25.20;101295.00;;;;5023501;28;20041;-67
2022/07/21 12:12:10;;;;;;;5.18;4.40;;;26.20;54.10;25.20;101287.00;;;;5007825;28;20048;-66
2022/07/21 12:14:56;;;;;;;7.13;4.88;;;26.30;54.00;25.20;101299.00;;;;5040158;28;20714;-66
2022/07/21 12:17:53;;;;;;;4.30;3.90;;;26.30;54.00;25.20;101290.00;;;;5028816;28;20453;-66